createdAt,value
2019-02-04T00:00:36.729Z,14.93
2019-02-04T00:03:08.031Z,14.13
2019-02-04T00:05:36.661Z,12.28
2019-02-04T00:08:05.578Z,10.23
2019-02-04T00:10:34.372Z,12.37
2019-02-04T00:13:03.513Z,13.95
2019-02-04T00:15:32.221Z,15.58
2019-02-04T00:18:00.884Z,16.12
2019-02-04T00:20:29.424Z,16.50
2019-02-04T00:22:58.023Z,14.28
2019-02-04T00:25:26.576Z,16.75
2019-02-04T00:27:55.528Z,9.68
2019-02-04T00:30:26.120Z,15.43
2019-02-04T00:32:54.876Z,9.88
2019-02-04T00:35:23.424Z,13.08
2019-02-04T00:37:52.012Z,15.55
2019-02-04T00:40:23.100Z,14.33
2019-02-04T00:42:51.691Z,13.72
2019-02-04T00:45:20.249Z,12.43
2019-02-04T00:47:48.975Z,12.95
2019-02-04T00:50:19.673Z,14.25
2019-02-04T00:52:48.327Z,15.78
2019-02-04T00:55:17.021Z,15.32
2019-02-04T00:57:45.810Z,12.53
2019-02-04T01:00:23.463Z,13.30
2019-02-04T01:02:52.181Z,12.10
2019-02-04T01:05:21.177Z,15.35
2019-02-04T01:07:49.908Z,15.58
2019-02-04T01:10:21.365Z,14.30
2019-02-04T01:12:50.061Z,14.23
2019-02-04T01:15:18.779Z,13.03
2019-02-04T01:17:47.408Z,14.83
2019-02-04T01:20:21.647Z,11.68
2019-02-04T01:22:50.336Z,14.23
2019-02-04T01:25:19.166Z,15.18
2019-02-04T01:27:47.855Z,13.25
2019-02-04T01:30:21.279Z,16.48
2019-02-04T01:32:50.080Z,14.38
2019-02-04T01:35:19.000Z,13.25
2019-02-04T01:37:47.823Z,15.95
2019-02-04T01:40:18.848Z,12.37
2019-02-04T01:42:47.477Z,15.60
2019-02-04T01:45:16.135Z,14.03
2019-02-04T01:47:44.757Z,15.50
2019-02-04T01:50:15.675Z,14.65
2019-02-04T01:52:44.304Z,13.78
2019-02-04T01:55:14.428Z,15.80
2019-02-04T01:57:43.720Z,12.95
2019-02-04T02:00:17.743Z,13.78
2019-02-04T02:02:46.368Z,13.03
2019-02-04T02:05:15.587Z,13.48
2019-02-04T02:07:44.139Z,13.22
2019-02-04T02:10:18.331Z,14.95
2019-02-04T02:12:47.031Z,14.78
2019-02-04T02:15:15.759Z,13.55
2019-02-04T02:17:44.307Z,14.03
2019-02-04T02:20:16.228Z,12.78
2019-02-04T02:22:44.780Z,14.58
2019-02-04T02:25:13.505Z,13.88
2019-02-04T02:27:42.126Z,14.83
2019-02-04T02:30:13.915Z,11.12
2019-02-04T02:32:42.668Z,13.98
2019-02-04T02:35:11.588Z,14.78
2019-02-04T02:37:40.217Z,15.18
2019-02-04T02:40:11.878Z,14.05
2019-02-04T02:42:40.431Z,13.03
2019-02-04T02:45:09.452Z,11.68
2019-02-04T02:47:38.823Z,14.73
2019-02-04T02:50:10.529Z,13.68
2019-02-04T02:52:39.156Z,12.55
2019-02-04T02:55:11.084Z,14.73
2019-02-04T02:57:39.775Z,12.65
2019-02-04T03:00:11.608Z,12.55
2019-02-04T03:02:40.200Z,12.18
2019-02-04T03:05:11.994Z,13.60
2019-02-04T03:07:40.653Z,11.73
2019-02-04T03:10:12.050Z,12.55
2019-02-04T03:12:40.641Z,12.93
2019-02-04T03:15:11.837Z,12.93
2019-02-04T03:17:51.508Z,12.25
2019-02-04T03:20:12.344Z,10.45
2019-02-04T03:22:40.955Z,13.32
2019-02-04T03:25:11.848Z,12.45
2019-02-04T03:27:40.702Z,12.63
2019-02-04T03:30:18.397Z,18.85
2019-02-04T03:32:47.005Z,14.60
2019-02-04T03:35:15.608Z,10.53
2019-02-04T03:37:44.295Z,10.03
2019-02-04T03:40:27.869Z,12.33
2019-02-04T03:42:56.518Z,14.47
2019-02-04T03:45:25.148Z,13.85
2019-02-04T03:48:04.571Z,15.15
2019-02-04T03:50:24.316Z,16.87
2019-02-04T03:52:53.279Z,14.28
2019-02-04T03:55:21.968Z,10.82
2019-02-04T03:57:50.620Z,13.50
2019-02-04T04:00:21.615Z,14.43
2019-02-04T04:02:50.549Z,14.73
2019-02-04T04:05:19.345Z,12.40
2019-02-04T04:07:48.045Z,15.35
2019-02-04T04:10:16.739Z,13.28
2019-02-04T04:12:45.393Z,11.78
2019-02-04T04:15:15.481Z,15.08
2019-02-04T04:17:44.207Z,13.65
2019-02-04T04:20:15.373Z,14.68
2019-02-04T04:22:44.020Z,15.18
2019-02-04T04:25:17.488Z,12.25
2019-02-04T04:27:46.513Z,14.65
2019-02-04T04:30:17.675Z,12.25
2019-02-04T04:32:46.329Z,12.78
2019-02-04T04:35:15.427Z,11.10
2019-02-04T04:37:44.020Z,13.72
2019-02-04T04:40:15.003Z,10.70
2019-02-04T04:42:43.929Z,14.35
2019-02-04T04:45:20.885Z,13.53
2019-02-04T04:47:49.776Z,12.68
2019-02-04T04:50:18.776Z,12.15
2019-02-04T04:52:47.365Z,13.40
2019-02-04T04:55:26.955Z,12.60
2019-02-04T04:57:56.005Z,15.60
2019-02-04T05:00:27.776Z,16.95
2019-02-04T05:02:56.431Z,17.00
2019-02-04T05:05:25.124Z,16.00
2019-02-04T05:07:53.947Z,13.68
2019-02-04T05:10:22.936Z,13.00
2019-02-04T05:12:51.629Z,15.35
2019-02-04T05:15:25.499Z,15.15
2019-02-04T05:17:54.054Z,12.85
2019-02-04T05:20:22.979Z,17.98
2019-02-04T05:22:51.678Z,11.53
2019-02-04T05:25:20.427Z,12.70
2019-02-04T05:27:49.157Z,15.60
2019-02-04T05:30:19.484Z,14.05
2019-02-04T05:32:48.049Z,12.28
2019-02-04T05:35:16.703Z,15.45
2019-02-04T05:37:45.266Z,13.78
2019-02-04T05:40:15.582Z,14.73
2019-02-04T05:42:44.505Z,17.73
2019-02-04T05:45:17.961Z,16.07
2019-02-04T05:47:46.522Z,18.20
2019-02-04T05:50:17.919Z,18.10
2019-02-04T05:52:46.921Z,16.90
2019-02-04T05:55:16.948Z,13.88
2019-02-04T05:57:45.644Z,14.83
2019-02-04T06:00:21.649Z,17.17
2019-02-04T06:02:50.215Z,21.73
2019-02-04T06:05:19.347Z,18.90
2019-02-04T06:07:48.045Z,19.98
2019-02-04T06:10:17.009Z,17.35
2019-02-04T06:12:45.576Z,18.85
2019-02-04T06:15:15.900Z,17.50
2019-02-04T06:17:44.523Z,16.97
2019-02-04T06:20:22.427Z,18.67
2019-02-04T06:22:51.290Z,21.17
2019-02-04T06:25:19.885Z,18.62
2019-02-04T06:27:48.695Z,20.68
2019-02-04T06:30:18.714Z,17.07
2019-02-04T06:32:47.400Z,17.02
2019-02-04T06:35:17.227Z,14.30
2019-02-04T06:37:46.846Z,15.15
2019-02-04T06:40:17.077Z,13.75
2019-02-04T06:42:47.845Z,16.37
2019-02-04T06:45:18.008Z,18.07
2019-02-04T06:47:50.336Z,21.40
2019-02-04T06:50:33.157Z,19.12
2019-02-04T06:53:20.008Z,24.75
2019-02-04T06:56:03.590Z,27.58
2019-02-04T06:58:36.838Z,23.55
2019-02-04T07:01:44.095Z,27.10
2019-02-04T07:03:59.461Z,22.93
2019-02-04T07:06:33.194Z,21.42
2019-02-04T07:09:01.936Z,22.27
2019-02-04T07:11:33.307Z,20.95
2019-02-04T07:14:12.398Z,19.07
2019-02-04T07:16:51.481Z,16.30
2019-02-04T07:19:28.968Z,22.60
2019-02-04T07:22:05.356Z,18.55
2019-02-04T07:24:43.300Z,20.02
2019-02-04T07:27:17.997Z,18.05
2019-02-04T07:29:55.982Z,15.72
2019-02-04T07:32:35.267Z,19.15
2019-02-04T07:35:12.385Z,18.37
2019-02-04T07:37:53.217Z,19.85
2019-02-04T07:40:56.302Z,17.90
2019-02-04T07:43:16.393Z,21.82
2019-02-04T07:45:49.955Z,25.50
2019-02-04T07:48:21.943Z,15.48
2019-02-04T07:51:04.496Z,15.15
2019-02-04T07:53:35.771Z,13.83
2019-02-04T07:56:12.308Z,15.78
2019-02-04T08:01:34.571Z,14.55
2019-02-04T08:04:08.168Z,16.90
2019-02-04T08:06:40.842Z,14.18
2019-02-04T08:09:13.103Z,17.02
2019-02-04T08:11:54.255Z,17.15
2019-02-04T08:14:32.838Z,13.80
2019-02-04T08:17:05.035Z,18.23
2019-02-04T08:19:47.330Z,20.30
2019-02-04T08:22:15.554Z,20.60
2019-02-04T08:24:46.916Z,22.40
2019-02-04T08:27:15.683Z,18.10
2019-02-04T08:29:44.328Z,21.10
2019-02-04T08:32:12.896Z,21.23
2019-02-04T08:34:43.105Z,21.73
2019-02-04T08:37:14.257Z,25.40
2019-02-04T08:39:43.028Z,28.85
2019-02-04T08:42:11.616Z,30.95
2019-02-04T08:44:40.180Z,30.10
2019-02-04T08:47:08.906Z,27.98
2019-02-04T08:49:37.466Z,26.93
2019-02-04T08:52:06.334Z,24.98
2019-02-04T08:54:36.456Z,22.80
2019-02-04T08:57:16.255Z,21.80
2019-02-04T08:59:44.845Z,20.88
2019-02-04T09:02:13.492Z,26.25
2019-02-04T09:04:42.150Z,21.35
2019-02-04T09:07:10.716Z,25.10
2019-02-04T09:09:39.311Z,24.20
2019-02-04T09:12:08.100Z,25.40
2019-02-04T09:14:39.079Z,22.73
2019-02-04T09:17:10.934Z,22.22
2019-02-04T09:19:42.046Z,23.15
2019-02-04T09:22:14.375Z,19.92
2019-02-04T09:24:46.338Z,22.35
2019-02-04T09:27:16.587Z,21.60
2019-02-04T09:29:47.499Z,30.50
2019-02-04T09:32:18.921Z,31.00
2019-02-04T09:34:48.978Z,23.12
2019-02-04T09:37:17.655Z,25.27
2019-02-04T09:39:46.551Z,25.37
2019-02-04T09:42:15.273Z,26.10
2019-02-04T09:44:43.867Z,19.55
2019-02-04T09:47:12.869Z,29.45
2019-02-04T09:49:41.761Z,22.15
2019-02-04T09:52:10.344Z,22.52
2019-02-04T09:54:38.940Z,20.50
2019-02-04T09:57:07.521Z,23.20
2019-02-04T09:59:36.189Z,18.20
2019-02-04T10:02:06.702Z,20.47
2019-02-04T10:04:35.678Z,20.37
2019-02-04T10:07:04.426Z,20.10
2019-02-04T10:09:32.984Z,22.55
2019-02-04T10:12:01.559Z,18.87
2019-02-04T10:14:30.148Z,21.43
2019-02-04T10:16:58.712Z,19.47
2019-02-04T10:19:27.496Z,23.07
2019-02-04T10:21:56.120Z,16.83
2019-02-04T10:24:24.653Z,18.00
2019-02-04T10:26:53.270Z,21.03
2019-02-04T10:29:21.864Z,20.85
2019-02-04T10:31:50.419Z,19.00
2019-02-04T10:34:19.114Z,19.07
2019-02-04T10:36:47.648Z,20.43
2019-02-04T10:39:16.271Z,21.40
2019-02-04T10:41:44.888Z,17.97
2019-02-04T10:44:13.501Z,18.17
2019-02-04T10:46:42.099Z,24.57
2019-02-04T10:49:10.751Z,25.40
2019-02-04T10:51:39.323Z,17.63
2019-02-04T10:54:07.997Z,21.57
2019-02-04T10:56:36.661Z,16.23
2019-02-04T10:59:05.468Z,15.63
2019-02-04T11:01:34.135Z,18.20
2019-02-04T11:04:02.685Z,21.43
2019-02-04T11:06:31.658Z,20.17
2019-02-04T11:09:00.527Z,20.50
2019-02-04T11:11:29.180Z,19.93
2019-02-04T11:13:57.862Z,16.00
2019-02-04T11:16:26.516Z,20.03
2019-02-04T11:18:55.147Z,19.37
2019-02-04T11:21:24.141Z,18.63
2019-02-04T11:23:52.811Z,19.40
2019-02-04T11:26:21.425Z,22.97
2019-02-04T11:28:50.014Z,20.37
2019-02-04T11:31:18.580Z,15.87
2019-02-04T11:33:47.208Z,14.10
2019-02-04T11:36:15.803Z,11.87
2019-02-04T11:38:44.510Z,13.10
2019-02-04T11:41:13.305Z,13.60
2019-02-04T11:43:44.834Z,11.53
2019-02-04T11:46:14.279Z,9.93
2019-02-04T11:48:42.897Z,16.13
2019-02-04T11:51:11.919Z,10.73
2019-02-04T11:53:40.547Z,11.50
2019-02-04T11:56:09.136Z,11.03
2019-02-04T11:58:37.769Z,12.77
2019-02-04T12:01:11.502Z,10.33
2019-02-04T12:03:41.183Z,10.87
2019-02-04T12:06:10.591Z,14.80
2019-02-04T12:08:39.304Z,11.30
2019-02-04T12:11:08.201Z,13.27
2019-02-04T12:13:37.737Z,8.60
2019-02-04T12:16:07.389Z,12.07
2019-02-04T12:18:36.132Z,11.03
2019-02-04T12:21:04.997Z,8.83
2019-02-04T12:23:33.691Z,10.90
2019-02-04T12:26:02.475Z,9.83
2019-02-04T12:28:31.038Z,9.27
2019-02-04T12:30:59.658Z,8.87
2019-02-04T12:33:28.248Z,15.33
2019-02-04T12:35:57.275Z,12.90
2019-02-04T12:38:25.928Z,9.03
2019-02-04T12:40:54.552Z,4.23
2019-02-04T12:43:23.408Z,2.77
2019-02-04T12:45:52.167Z,4.10
2019-02-04T12:48:20.820Z,1.97
2019-02-04T12:50:49.379Z,3.73
2019-02-04T12:53:18.061Z,2.40
2019-02-04T12:55:46.592Z,1.97
2019-02-04T12:58:15.175Z,6.90
2019-02-04T13:00:43.948Z,3.40
2019-02-04T13:03:12.535Z,3.67
2019-02-04T13:05:44.067Z,5.27
2019-02-04T13:08:13.137Z,4.80
2019-02-04T13:10:44.610Z,2.70
2019-02-04T13:13:15.431Z,4.20
2019-02-04T13:15:44.328Z,3.50
2019-02-04T13:18:13.064Z,5.30
2019-02-04T13:20:42.087Z,1.87
2019-02-04T13:23:11.073Z,1.77
2019-02-04T13:25:39.699Z,5.40
2019-02-04T13:28:12.599Z,2.70
2019-02-04T13:30:40.960Z,2.83
2019-02-04T13:33:09.546Z,2.50
2019-02-04T13:35:38.400Z,2.73
2019-02-04T13:38:07.086Z,5.93
2019-02-04T13:40:35.816Z,4.43
2019-02-04T13:43:04.929Z,2.57
2019-02-04T13:45:33.758Z,5.80
2019-02-04T13:48:02.456Z,4.47
2019-02-04T13:50:31.345Z,3.97
2019-02-04T13:52:59.968Z,4.87
2019-02-04T13:55:39.540Z,4.83
2019-02-04T13:58:08.327Z,2.87
2019-02-04T14:00:37.444Z,3.00
2019-02-04T14:03:07.144Z,2.47
2019-02-04T14:05:35.971Z,2.63
2019-02-04T14:08:04.957Z,2.57
2019-02-04T14:10:35.792Z,4.07
2019-02-04T14:13:05.482Z,4.43
2019-02-04T14:15:35.723Z,2.80
2019-02-04T14:18:05.595Z,5.50
2019-02-04T14:20:34.392Z,4.00
2019-02-04T14:23:03.077Z,3.87
2019-02-04T14:25:31.802Z,4.07
2019-02-04T14:28:03.357Z,3.73
2019-02-04T14:30:33.552Z,5.23
2019-02-04T14:33:02.346Z,2.27
2019-02-04T14:35:31.069Z,4.73
2019-02-04T14:37:59.759Z,4.90
2019-02-04T14:40:28.472Z,4.10
2019-02-04T14:43:06.044Z,2.97
2019-02-04T14:45:57.060Z,1.90
2019-02-04T14:48:43.291Z,2.43
2019-02-04T14:51:32.888Z,2.97
2019-02-04T14:54:16.372Z,2.97
2019-02-04T14:57:04.165Z,5.20
2019-02-04T14:59:33.352Z,2.53
2019-02-04T15:02:13.466Z,3.50
2019-02-04T15:04:50.900Z,7.00
2019-02-04T15:07:34.416Z,3.47
2019-02-04T15:10:14.832Z,2.90
2019-02-04T15:12:58.469Z,3.27
2019-02-04T15:15:30.094Z,2.57
2019-02-04T15:18:07.689Z,2.93
2019-02-04T15:21:14.259Z,3.33
2019-02-04T15:23:48.789Z,2.27
2019-02-04T15:26:36.535Z,3.77
2019-02-04T15:29:22.747Z,5.33
2019-02-04T15:32:15.140Z,4.83
2019-02-04T15:35:04.625Z,4.17
2019-02-04T15:37:34.666Z,4.53
2019-02-04T15:40:08.728Z,5.27
2019-02-04T15:42:56.896Z,6.40
2019-02-04T15:45:37.312Z,4.90
2019-02-04T15:48:06.028Z,3.97
2019-02-04T15:50:43.411Z,4.23
2019-02-04T15:53:11.989Z,5.33
2019-02-04T15:55:40.612Z,4.43
2019-02-04T15:58:09.334Z,6.23
2019-02-04T16:00:37.890Z,3.87
2019-02-04T16:03:06.745Z,4.70
2019-02-04T16:05:35.302Z,7.77
2019-02-04T16:08:03.961Z,5.53
2019-02-04T16:10:32.507Z,4.67
2019-02-04T16:13:01.099Z,4.43
2019-02-04T16:15:29.792Z,5.63
2019-02-04T16:17:58.741Z,6.37
2019-02-04T16:20:27.377Z,5.80
2019-02-04T16:22:58.780Z,4.23
2019-02-04T16:25:26.293Z,5.13
2019-02-04T16:27:54.877Z,5.87
2019-02-04T16:30:23.555Z,5.30
2019-02-04T16:32:52.993Z,3.60
2019-02-04T16:35:21.572Z,6.57
2019-02-04T16:37:50.470Z,5.80
2019-02-04T16:40:22.900Z,6.10
2019-02-04T16:42:51.523Z,7.73
2019-02-04T16:45:22.143Z,3.97
2019-02-04T16:47:51.300Z,7.40
2019-02-04T16:50:22.092Z,6.20
2019-02-04T16:52:50.795Z,4.23
2019-02-04T16:55:19.477Z,10.43
2019-02-04T16:57:48.032Z,3.90
2019-02-04T17:00:25.149Z,5.13
2019-02-04T17:02:53.703Z,6.17
2019-02-04T17:05:23.788Z,6.87
2019-02-04T17:07:52.338Z,3.47
2019-02-04T17:10:24.092Z,5.10
2019-02-04T17:12:52.979Z,8.23
2019-02-04T17:15:21.736Z,7.87
2019-02-04T17:17:50.423Z,5.63
2019-02-04T17:20:24.859Z,7.07
2019-02-04T17:22:53.424Z,13.70
2019-02-04T17:25:22.075Z,11.67
2019-02-04T17:27:50.764Z,7.60
2019-02-04T17:30:22.088Z,10.43
2019-02-04T17:32:50.884Z,9.63
2019-02-04T17:35:19.604Z,13.43
2019-02-04T17:37:48.160Z,10.63
2019-02-04T17:40:19.291Z,13.20
2019-02-04T17:42:48.021Z,7.00
2019-02-04T17:45:17.444Z,8.27
2019-02-04T17:47:47.442Z,5.73
2019-02-04T17:50:18.354Z,8.37
2019-02-04T17:52:47.045Z,6.35
2019-02-04T17:55:17.803Z,5.93
2019-02-04T17:57:46.491Z,6.60
2019-02-04T18:00:40.241Z,10.23
2019-02-04T18:03:09.136Z,4.17
2019-02-04T18:05:37.874Z,7.00
2019-02-04T18:08:06.869Z,5.40
2019-02-04T18:10:35.524Z,7.87
2019-02-04T18:13:04.251Z,5.45
2019-02-04T18:15:32.995Z,5.28
2019-02-04T18:18:01.552Z,6.72
2019-02-04T18:20:30.299Z,5.87
2019-02-04T18:22:59.011Z,5.65
2019-02-04T18:25:27.965Z,5.17
2019-02-04T18:27:56.596Z,6.67
2019-02-04T18:30:25.997Z,6.47
2019-02-04T18:32:54.721Z,9.37
2019-02-04T18:35:23.717Z,5.60
2019-02-04T18:37:52.368Z,4.55
2019-02-04T18:40:22.475Z,5.92
2019-02-04T18:42:51.497Z,5.53
2019-02-04T18:45:25.411Z,8.35
2019-02-04T18:47:54.067Z,15.15
2019-02-04T18:50:23.865Z,7.33
2019-02-04T18:52:52.520Z,6.72
2019-02-04T18:55:33.991Z,8.55
2019-02-04T18:58:02.670Z,7.15
2019-02-04T19:00:32.763Z,8.25
2019-02-04T19:03:03.954Z,5.87
2019-02-04T19:05:32.509Z,8.15
2019-02-04T19:08:01.169Z,7.12
2019-02-04T19:10:29.880Z,5.25
2019-02-04T19:12:58.636Z,5.22
2019-02-04T19:15:30.112Z,7.17
2019-02-04T19:18:02.146Z,12.78
2019-02-04T19:20:30.709Z,11.65
2019-02-04T19:22:59.289Z,7.80
2019-02-04T19:25:27.916Z,9.25
2019-02-04T19:27:56.496Z,8.55
2019-02-04T19:30:43.083Z,6.75
2019-02-04T19:33:11.664Z,6.42
2019-02-04T19:35:40.220Z,8.88
2019-02-04T19:38:08.947Z,6.87
2019-02-04T19:40:37.503Z,5.47
2019-02-04T19:43:06.161Z,5.45
2019-02-04T19:45:34.987Z,5.72
2019-02-04T19:48:03.585Z,6.53
2019-02-04T19:50:37.052Z,8.55
2019-02-04T19:53:06.093Z,9.00
2019-02-04T19:55:34.645Z,9.60
2019-02-04T19:58:03.377Z,7.55
2019-02-04T20:00:32.129Z,9.18
2019-02-04T20:03:00.790Z,10.43
2019-02-04T20:05:33.207Z,8.38
2019-02-04T20:08:01.865Z,17.02
2019-02-04T20:10:32.996Z,5.00
2019-02-04T20:13:02.550Z,7.28
2019-02-04T20:15:32.144Z,7.45
2019-02-04T20:18:01.052Z,12.47
2019-02-04T20:20:30.065Z,9.83
2019-02-04T20:22:58.840Z,10.32
2019-02-04T20:25:34.384Z,10.68
2019-02-04T20:28:05.305Z,9.35
2019-02-04T20:30:45.722Z,6.03
2019-02-04T20:33:10.665Z,7.30
2019-02-04T20:35:39.506Z,9.85
2019-02-04T20:38:09.161Z,14.78
2019-02-04T20:40:37.791Z,14.18
2019-02-04T20:43:09.225Z,15.13
2019-02-04T20:45:37.883Z,13.45
2019-02-04T20:48:08.975Z,12.18
2019-02-04T20:50:46.547Z,10.40
2019-02-04T20:53:15.356Z,10.63
2019-02-04T20:55:44.193Z,7.30
2019-02-04T20:58:12.885Z,8.38
2019-02-04T21:00:41.482Z,7.15
2019-02-04T21:03:10.035Z,7.62
2019-02-04T21:05:38.626Z,9.10
2019-02-04T21:08:07.525Z,7.85
2019-02-04T21:10:36.419Z,6.03
2019-02-04T21:13:06.581Z,6.60
2019-02-04T21:15:35.304Z,5.50
2019-02-04T21:18:04.496Z,5.80
2019-02-04T21:20:33.156Z,9.35
2019-02-04T21:23:01.704Z,8.70
2019-02-04T21:25:30.595Z,6.33
2019-02-04T21:27:59.217Z,6.65
2019-02-04T21:30:36.064Z,7.10
2019-02-04T21:33:05.052Z,6.90
2019-02-04T21:35:33.706Z,8.95
2019-02-04T21:38:02.332Z,8.53
2019-02-04T21:40:31.172Z,7.97
2019-02-04T21:42:59.730Z,6.67
2019-02-04T21:45:28.552Z,7.75
2019-02-04T21:47:57.248Z,8.55
2019-02-04T21:50:27.799Z,5.17
2019-02-04T21:52:56.496Z,5.72
2019-02-04T21:55:26.019Z,11.25
2019-02-04T21:57:54.952Z,5.20
2019-02-04T22:00:26.116Z,8.40
2019-02-04T22:02:54.701Z,6.87
2019-02-04T22:05:28.221Z,7.10
2019-02-04T22:07:56.954Z,7.83
2019-02-04T22:10:30.105Z,5.58
2019-02-04T22:12:59.524Z,10.13
2019-02-04T22:15:28.152Z,24.15
2019-02-04T22:17:56.875Z,26.75
2019-02-04T22:20:25.577Z,21.30
2019-02-04T22:22:54.240Z,17.23
2019-02-04T22:25:24.335Z,18.92
2019-02-04T22:27:52.997Z,16.55
2019-02-04T22:30:24.061Z,9.28
2019-02-04T22:32:52.705Z,8.88
2019-02-04T22:35:21.338Z,8.75
2019-02-04T22:37:50.087Z,7.08
2019-02-04T22:40:24.257Z,8.85
2019-02-04T22:42:53.079Z,7.55
2019-02-04T22:45:21.848Z,8.78
2019-02-04T22:47:50.509Z,6.12
2019-02-04T22:50:21.566Z,7.20
2019-02-04T22:52:50.424Z,10.28
2019-02-04T22:55:31.026Z,8.85
2019-02-04T22:57:49.884Z,7.35
2019-02-04T23:00:45.085Z,9.55
2019-02-04T23:03:14.316Z,12.55
2019-02-04T23:05:42.931Z,9.88
2019-02-04T23:08:11.595Z,9.55
2019-02-04T23:10:40.296Z,12.43
2019-02-04T23:13:08.960Z,13.28
2019-02-04T23:15:37.517Z,10.93
2019-02-04T23:18:06.444Z,9.35
2019-02-04T23:20:35.075Z,9.35
2019-02-04T23:23:04.788Z,7.45
2019-02-04T23:25:43.042Z,14.47
2019-02-04T23:28:04.115Z,12.70
2019-02-04T23:30:32.747Z,9.68
2019-02-04T23:33:01.765Z,10.25
2019-02-04T23:35:30.257Z,13.05
2019-02-04T23:37:58.893Z,11.40
2019-02-04T23:40:27.484Z,11.55
2019-02-04T23:42:56.110Z,10.85
2019-02-04T23:45:24.765Z,13.70
2019-02-04T23:47:53.465Z,8.63
2019-02-04T23:50:22.117Z,11.00
2019-02-04T23:52:50.676Z,9.78
2019-02-04T23:55:19.337Z,12.55
2019-02-04T23:57:47.900Z,11.95
